Capitol Logistics 524




RCTP
Taiwan Taoyuan International Airport
Taipei, TW
RJAA
Tokyo-Narita International Airport
Tokyo, JP

Activity Log

Date Flight Route Aircraft Duration
No Flights Yet

Route Details

Aircraft Information
Group: Trans-Pacific Ops
Types: B744,B763,MD11
Route Data
Demand: V
Distance: 1179nm
Duration: 3h 10m
Recm'd Route: MOLK1A MOLKA M750 ANKIX Y891 AGIMO Y89 GUPER Y81 RUTAS RUTASN
Origin Wx: RCTP 242030Z 15006KT 5000 -RA SCT008 BKN012 BKN030 23/22 Q1009 NOSIG RMK A2982
Dest. Wx: RJAA 242030Z AUTO 17004KT 9999 NCD 17/17 Q1015 NOSIG RMK A2998
Notes:

Financial History
Total Freight: 0lbs
Average Load: 0lbs/flt
Fuel Used: 0lbs
Avg. Fuel Used: 0lbs/flt
Fuel Expense: $0
Avg. Fuel Expense: $0
Avg. Fuel Cost: $0/lbs
Total Gross Income: $0
Pilot Pay: $0
Total Expenses: $0
Total Revenue: $0
Average Revenue: $0